sensor_id;sensor_type;location;lat;lon;timestamp;P1;durP1;ratioP1;P2;durP2;ratioP2
17925;SDS011;9088;55.674;13.354;2023-05-16T00:01:14;0.50;;;0.50;;
17925;SDS011;9088;55.674;13.354;2023-05-16T00:03:42;0.50;;;0.50;;
17925;SDS011;9088;55.674;13.354;2023-05-16T00:06:09;0.50;;;0.50;;
17925;SDS011;9088;55.674;13.354;2023-05-16T00:08:36;0.60;;;0.60;;
17925;SDS011;9088;55.674;13.354;2023-05-16T00:11:03;0.60;;;0.60;;
17925;SDS011;9088;55.674;13.354;2023-05-16T00:13:31;0.60;;;0.60;;
17925;SDS011;9088;55.674;13.354;2023-05-16T00:15:59;0.50;;;0.50;;
17925;SDS011;9088;55.674;13.354;2023-05-16T00:18:29;0.60;;;0.60;;
17925;SDS011;9088;55.674;13.354;2023-05-16T00:20:56;0.50;;;0.50;;
17925;SDS011;9088;55.674;13.354;2023-05-16T00:23:23;0.50;;;0.50;;
17925;SDS011;9088;55.674;13.354;2023-05-16T00:25:51;0.47;;;0.47;;
17925;SDS011;9088;55.674;13.354;2023-05-16T00:28:18;0.50;;;0.50;;
17925;SDS011;9088;55.674;13.354;2023-05-16T00:30:46;0.50;;;0.50;;
17925;SDS011;9088;55.674;13.354;2023-05-16T00:33:13;0.40;;;0.40;;
17925;SDS011;9088;55.674;13.354;2023-05-16T00:35:40;0.50;;;0.50;;
17925;SDS011;9088;55.674;13.354;2023-05-16T00:38:12;0.40;;;0.40;;
17925;SDS011;9088;55.674;13.354;2023-05-16T00:40:42;0.50;;;0.50;;
17925;SDS011;9088;55.674;13.354;2023-05-16T00:43:09;0.40;;;0.40;;
17925;SDS011;9088;55.674;13.354;2023-05-16T00:45:36;0.47;;;0.47;;
17925;SDS011;9088;55.674;13.354;2023-05-16T00:48:04;0.50;;;0.50;;
17925;SDS011;9088;55.674;13.354;2023-05-16T00:50:33;0.40;;;0.40;;
17925;SDS011;9088;55.674;13.354;2023-05-16T00:53:00;0.43;;;0.43;;
17925;SDS011;9088;55.674;13.354;2023-05-16T00:55:27;0.40;;;0.40;;
17925;SDS011;9088;55.674;13.354;2023-05-16T00:57:54;0.40;;;0.40;;
17925;SDS011;9088;55.674;13.354;2023-05-16T01:00:22;0.50;;;0.50;;
17925;SDS011;9088;55.674;13.354;2023-05-16T01:02:49;0.40;;;0.40;;
17925;SDS011;9088;55.674;13.354;2023-05-16T01:05:18;0.40;;;0.40;;
17925;SDS011;9088;55.674;13.354;2023-05-16T01:07:46;0.50;;;0.50;;
17925;SDS011;9088;55.674;13.354;2023-05-16T01:10:13;0.50;;;0.50;;
17925;SDS011;9088;55.674;13.354;2023-05-16T01:12:43;0.40;;;0.40;;
17925;SDS011;9088;55.674;13.354;2023-05-16T01:15:12;0.40;;;0.40;;
17925;SDS011;9088;55.674;13.354;2023-05-16T01:17:44;0.40;;;0.40;;
17925;SDS011;9088;55.674;13.354;2023-05-16T01:20:19;0.40;;;0.40;;
17925;SDS011;9088;55.674;13.354;2023-05-16T01:22:51;0.40;;;0.40;;
17925;SDS011;9088;55.674;13.354;2023-05-16T01:25:30;0.40;;;0.40;;
17925;SDS011;9088;55.674;13.354;2023-05-16T01:27:59;0.43;;;0.43;;
17925;SDS011;9088;55.674;13.354;2023-05-16T01:30:31;0.40;;;0.40;;
17925;SDS011;9088;55.674;13.354;2023-05-16T01:32:59;0.40;;;0.40;;
17925;SDS011;9088;55.674;13.354;2023-05-16T01:35:26;0.40;;;0.40;;
17925;SDS011;9088;55.674;13.354;2023-05-16T01:37:55;0.50;;;0.50;;
17925;SDS011;9088;55.674;13.354;2023-05-16T01:40:28;0.40;;;0.40;;
17925;SDS011;9088;55.674;13.354;2023-05-16T01:42:55;0.40;;;0.40;;
17925;SDS011;9088;55.674;13.354;2023-05-16T01:45:28;0.40;;;0.40;;
17925;SDS011;9088;55.674;13.354;2023-05-16T01:47:59;0.50;;;0.50;;
17925;SDS011;9088;55.674;13.354;2023-05-16T01:50:27;0.50;;;0.50;;
17925;SDS011;9088;55.674;13.354;2023-05-16T01:52:55;0.50;;;0.50;;
17925;SDS011;9088;55.674;13.354;2023-05-16T01:55:30;0.40;;;0.40;;
17925;SDS011;9088;55.674;13.354;2023-05-16T01:58:00;0.50;;;0.50;;
17925;SDS011;9088;55.674;13.354;2023-05-16T02:00:29;0.50;;;0.50;;
17925;SDS011;9088;55.674;13.354;2023-05-16T02:02:57;0.50;;;0.50;;
17925;SDS011;9088;55.674;13.354;2023-05-16T02:05:24;0.50;;;0.50;;
17925;SDS011;9088;55.674;13.354;2023-05-16T02:07:51;0.50;;;0.50;;
17925;SDS011;9088;55.674;13.354;2023-05-16T02:10:18;0.50;;;0.50;;
17925;SDS011;9088;55.674;13.354;2023-05-16T02:12:45;0.50;;;0.50;;
17925;SDS011;9088;55.674;13.354;2023-05-16T02:15:12;0.50;;;0.50;;
17925;SDS011;9088;55.674;13.354;2023-05-16T02:17:40;0.50;;;0.50;;
17925;SDS011;9088;55.674;13.354;2023-05-16T02:20:08;0.50;;;0.50;;
17925;SDS011;9088;55.674;13.354;2023-05-16T02:22:35;0.50;;;0.50;;
17925;SDS011;9088;55.674;13.354;2023-05-16T02:25:03;0.50;;;0.50;;
17925;SDS011;9088;55.674;13.354;2023-05-16T02:27:31;0.60;;;0.60;;
17925;SDS011;9088;55.674;13.354;2023-05-16T02:29:58;0.57;;;0.57;;
17925;SDS011;9088;55.674;13.354;2023-05-16T02:32:25;0.60;;;0.60;;
17925;SDS011;9088;55.674;13.354;2023-05-16T02:34:53;0.50;;;0.50;;
17925;SDS011;9088;55.674;13.354;2023-05-16T02:37:20;0.50;;;0.50;;
17925;SDS011;9088;55.674;13.354;2023-05-16T02:39:47;0.50;;;0.50;;
17925;SDS011;9088;55.674;13.354;2023-05-16T02:42:14;0.60;;;0.60;;
17925;SDS011;9088;55.674;13.354;2023-05-16T02:44:41;0.70;;;0.70;;
17925;SDS011;9088;55.674;13.354;2023-05-16T02:47:08;1.10;;;1.10;;
17925;SDS011;9088;55.674;13.354;2023-05-16T02:49:35;1.20;;;1.20;;
17925;SDS011;9088;55.674;13.354;2023-05-16T02:52:04;1.60;;;1.60;;
17925;SDS011;9088;55.674;13.354;2023-05-16T02:54:32;1.90;;;1.90;;
17925;SDS011;9088;55.674;13.354;2023-05-16T02:56:59;2.10;;;2.00;;
17925;SDS011;9088;55.674;13.354;2023-05-16T02:59:26;2.20;;;2.10;;
17925;SDS011;9088;55.674;13.354;2023-05-16T03:01:53;2.57;;;2.47;;
17925;SDS011;9088;55.674;13.354;2023-05-16T03:04:20;2.50;;;2.40;;
17925;SDS011;9088;55.674;13.354;2023-05-16T03:06:47;2.60;;;2.50;;
17925;SDS011;9088;55.674;13.354;2023-05-16T03:09:16;2.90;;;2.80;;
17925;SDS011;9088;55.674;13.354;2023-05-16T03:11:44;3.10;;;3.00;;
17925;SDS011;9088;55.674;13.354;2023-05-16T03:14:11;2.90;;;2.80;;
17925;SDS011;9088;55.674;13.354;2023-05-16T03:16:38;2.80;;;2.70;;
17925;SDS011;9088;55.674;13.354;2023-05-16T03:19:07;3.00;;;2.90;;
17925;SDS011;9088;55.674;13.354;2023-05-16T03:21:34;2.90;;;2.80;;
17925;SDS011;9088;55.674;13.354;2023-05-16T03:24:01;2.73;;;2.63;;
17925;SDS011;9088;55.674;13.354;2023-05-16T03:26:30;2.80;;;2.70;;
17925;SDS011;9088;55.674;13.354;2023-05-16T03:28:57;3.07;;;2.97;;
17925;SDS011;9088;55.674;13.354;2023-05-16T03:31:24;2.70;;;2.60;;
17925;SDS011;9088;55.674;13.354;2023-05-16T03:33:51;3.00;;;2.90;;
17925;SDS011;9088;55.674;13.354;2023-05-16T03:36:19;3.10;;;3.00;;
17925;SDS011;9088;55.674;13.354;2023-05-16T03:38:46;2.80;;;2.70;;
17925;SDS011;9088;55.674;13.354;2023-05-16T03:41:14;2.90;;;2.80;;
17925;SDS011;9088;55.674;13.354;2023-05-16T03:43:42;3.00;;;2.90;;
17925;SDS011;9088;55.674;13.354;2023-05-16T03:46:09;4.57;;;4.37;;
17925;SDS011;9088;55.674;13.354;2023-05-16T03:48:36;4.20;;;4.10;;
17925;SDS011;9088;55.674;13.354;2023-05-16T03:51:03;3.90;;;3.80;;
17925;SDS011;9088;55.674;13.354;2023-05-16T03:53:30;3.90;;;3.80;;
17925;SDS011;9088;55.674;13.354;2023-05-16T03:55:58;4.17;;;4.07;;
17925;SDS011;9088;55.674;13.354;2023-05-16T03:58:25;4.10;;;4.00;;
17925;SDS011;9088;55.674;13.354;2023-05-16T04:00:53;3.97;;;3.87;;
17925;SDS011;9088;55.674;13.354;2023-05-16T04:03:20;4.33;;;4.13;;
17925;SDS011;9088;55.674;13.354;2023-05-16T04:05:52;4.00;;;3.90;;
17925;SDS011;9088;55.674;13.354;2023-05-16T04:08:19;4.10;;;4.00;;
17925;SDS011;9088;55.674;13.354;2023-05-16T04:10:46;4.10;;;4.00;;
17925;SDS011;9088;55.674;13.354;2023-05-16T04:13:13;4.07;;;3.97;;
17925;SDS011;9088;55.674;13.354;2023-05-16T04:15:40;4.00;;;3.90;;
17925;SDS011;9088;55.674;13.354;2023-05-16T04:18:09;4.07;;;3.97;;
17925;SDS011;9088;55.674;13.354;2023-05-16T04:20:36;4.10;;;4.00;;
17925;SDS011;9088;55.674;13.354;2023-05-16T04:23:03;3.80;;;3.70;;
17925;SDS011;9088;55.674;13.354;2023-05-16T04:25:30;3.73;;;3.63;;
17925;SDS011;9088;55.674;13.354;2023-05-16T04:27:58;4.00;;;3.90;;
17925;SDS011;9088;55.674;13.354;2023-05-16T04:30:25;3.90;;;3.80;;
17925;SDS011;9088;55.674;13.354;2023-05-16T04:32:52;4.40;;;4.20;;
17925;SDS011;9088;55.674;13.354;2023-05-16T04:35:20;3.97;;;3.87;;
17925;SDS011;9088;55.674;13.354;2023-05-16T04:37:47;4.00;;;3.90;;
17925;SDS011;9088;55.674;13.354;2023-05-16T04:40:15;4.20;;;4.10;;
17925;SDS011;9088;55.674;13.354;2023-05-16T04:42:42;4.00;;;3.90;;
17925;SDS011;9088;55.674;13.354;2023-05-16T04:45:09;4.10;;;4.00;;
17925;SDS011;9088;55.674;13.354;2023-05-16T04:47:38;3.90;;;3.80;;
17925;SDS011;9088;55.674;13.354;2023-05-16T04:50:06;4.20;;;4.10;;
17925;SDS011;9088;55.674;13.354;2023-05-16T04:52:35;4.40;;;4.20;;
17925;SDS011;9088;55.674;13.354;2023-05-16T04:55:03;4.10;;;4.00;;
17925;SDS011;9088;55.674;13.354;2023-05-16T04:57:30;4.27;;;4.10;;
17925;SDS011;9088;55.674;13.354;2023-05-16T04:59:57;4.50;;;4.30;;
17925;SDS011;9088;55.674;13.354;2023-05-16T05:02:24;4.10;;;4.00;;
17925;SDS011;9088;55.674;13.354;2023-05-16T05:04:51;4.00;;;3.90;;
17925;SDS011;9088;55.674;13.354;2023-05-16T05:07:18;3.87;;;3.77;;
17925;SDS011;9088;55.674;13.354;2023-05-16T05:09:47;4.10;;;4.00;;
17925;SDS011;9088;55.674;13.354;2023-05-16T05:12:14;4.27;;;4.10;;
17925;SDS011;9088;55.674;13.354;2023-05-16T05:14:41;4.40;;;4.20;;
17925;SDS011;9088;55.674;13.354;2023-05-16T05:35:31;4.13;;;4.00;;
17925;SDS011;9088;55.674;13.354;2023-05-16T05:37:58;4.00;;;3.90;;
17925;SDS011;9088;55.674;13.354;2023-05-16T05:40:25;3.80;;;3.70;;
17925;SDS011;9088;55.674;13.354;2023-05-16T05:42:52;3.70;;;3.60;;
17925;SDS011;9088;55.674;13.354;2023-05-16T05:45:19;3.40;;;3.30;;
17925;SDS011;9088;55.674;13.354;2023-05-16T05:47:46;3.40;;;3.30;;
17925;SDS011;9088;55.674;13.354;2023-05-16T05:50:13;3.50;;;3.40;;
17925;SDS011;9088;55.674;13.354;2023-05-16T05:52:42;3.30;;;3.20;;
17925;SDS011;9088;55.674;13.354;2023-05-16T05:55:09;3.30;;;3.20;;
17925;SDS011;9088;55.674;13.354;2023-05-16T05:57:36;3.20;;;3.10;;
17925;SDS011;9088;55.674;13.354;2023-05-16T06:00:04;3.20;;;3.10;;
17925;SDS011;9088;55.674;13.354;2023-05-16T06:02:31;3.37;;;3.27;;
17925;SDS011;9088;55.674;13.354;2023-05-16T06:04:58;3.40;;;3.30;;
17925;SDS011;9088;55.674;13.354;2023-05-16T06:07:25;3.40;;;3.30;;
17925;SDS011;9088;55.674;13.354;2023-05-16T06:09:53;3.40;;;3.30;;
17925;SDS011;9088;55.674;13.354;2023-05-16T06:12:20;3.50;;;3.40;;
17925;SDS011;9088;55.674;13.354;2023-05-16T06:14:47;3.40;;;3.30;;
17925;SDS011;9088;55.674;13.354;2023-05-16T06:17:14;3.20;;;3.10;;
17925;SDS011;9088;55.674;13.354;2023-05-16T06:19:41;3.40;;;3.30;;
17925;SDS011;9088;55.674;13.354;2023-05-16T06:22:09;3.40;;;3.30;;
17925;SDS011;9088;55.674;13.354;2023-05-16T06:24:36;3.60;;;3.50;;
17925;SDS011;9088;55.674;13.354;2023-05-16T06:27:06;3.70;;;3.60;;
17925;SDS011;9088;55.674;13.354;2023-05-16T06:29:33;3.60;;;3.50;;
17925;SDS011;9088;55.674;13.354;2023-05-16T06:32:00;3.50;;;3.40;;
17925;SDS011;9088;55.674;13.354;2023-05-16T06:34:27;3.40;;;3.30;;
17925;SDS011;9088;55.674;13.354;2023-05-16T06:36:55;3.30;;;3.20;;
17925;SDS011;9088;55.674;13.354;2023-05-16T06:39:22;3.20;;;3.10;;
17925;SDS011;9088;55.674;13.354;2023-05-16T06:41:50;3.27;;;3.17;;
17925;SDS011;9088;55.674;13.354;2023-05-16T06:44:18;3.20;;;3.10;;
17925;SDS011;9088;55.674;13.354;2023-05-16T06:46:45;3.20;;;3.10;;
17925;SDS011;9088;55.674;13.354;2023-05-16T06:49:12;3.13;;;3.03;;
17925;SDS011;9088;55.674;13.354;2023-05-16T06:51:40;3.20;;;3.10;;
17925;SDS011;9088;55.674;13.354;2023-05-16T06:54:07;3.10;;;3.00;;
17925;SDS011;9088;55.674;13.354;2023-05-16T06:56:34;3.30;;;3.20;;
17925;SDS011;9088;55.674;13.354;2023-05-16T06:59:01;3.20;;;3.10;;
17925;SDS011;9088;55.674;13.354;2023-05-16T07:01:29;3.60;;;3.50;;
17925;SDS011;9088;55.674;13.354;2023-05-16T07:03:56;3.07;;;2.97;;
17925;SDS011;9088;55.674;13.354;2023-05-16T07:06:23;3.30;;;3.20;;
17925;SDS011;9088;55.674;13.354;2023-05-16T07:08:51;3.27;;;3.17;;
17925;SDS011;9088;55.674;13.354;2023-05-16T07:11:18;3.00;;;2.90;;
17925;SDS011;9088;55.674;13.354;2023-05-16T07:13:45;2.93;;;2.83;;
17925;SDS011;9088;55.674;13.354;2023-05-16T07:16:12;2.90;;;2.80;;
17925;SDS011;9088;55.674;13.354;2023-05-16T07:18:40;3.20;;;3.10;;
17925;SDS011;9088;55.674;13.354;2023-05-16T07:21:07;2.60;;;2.50;;
17925;SDS011;9088;55.674;13.354;2023-05-16T07:23:35;3.03;;;2.93;;
17925;SDS011;9088;55.674;13.354;2023-05-16T07:26:02;2.50;;;2.40;;
17925;SDS011;9088;55.674;13.354;2023-05-16T07:28:29;2.77;;;2.67;;
17925;SDS011;9088;55.674;13.354;2023-05-16T07:30:56;3.10;;;3.00;;
17925;SDS011;9088;55.674;13.354;2023-05-16T07:33:24;3.10;;;3.00;;
17925;SDS011;9088;55.674;13.354;2023-05-16T07:35:52;2.90;;;2.80;;
17925;SDS011;9088;55.674;13.354;2023-05-16T07:38:20;3.37;;;3.27;;
17925;SDS011;9088;55.674;13.354;2023-05-16T07:40:47;2.90;;;2.80;;
17925;SDS011;9088;55.674;13.354;2023-05-16T07:43:14;3.40;;;3.30;;
17925;SDS011;9088;55.674;13.354;2023-05-16T07:45:41;2.80;;;2.70;;
17925;SDS011;9088;55.674;13.354;2023-05-16T07:48:08;3.20;;;3.10;;
17925;SDS011;9088;55.674;13.354;2023-05-16T07:50:35;3.10;;;3.00;;
17925;SDS011;9088;55.674;13.354;2023-05-16T07:53:04;2.90;;;2.80;;
17925;SDS011;9088;55.674;13.354;2023-05-16T07:55:31;2.50;;;2.40;;
17925;SDS011;9088;55.674;13.354;2023-05-16T07:57:58;2.40;;;2.30;;
17925;SDS011;9088;55.674;13.354;2023-05-16T08:00:25;2.40;;;2.30;;
17925;SDS011;9088;55.674;13.354;2023-05-16T08:02:52;2.50;;;2.40;;
17925;SDS011;9088;55.674;13.354;2023-05-16T08:05:19;2.40;;;2.30;;
17925;SDS011;9088;55.674;13.354;2023-05-16T08:07:46;2.40;;;2.30;;
17925;SDS011;9088;55.674;13.354;2023-05-16T08:10:14;2.30;;;2.20;;
17925;SDS011;9088;55.674;13.354;2023-05-16T08:12:41;2.30;;;2.20;;
17925;SDS011;9088;55.674;13.354;2023-05-16T08:15:09;2.20;;;2.10;;
17925;SDS011;9088;55.674;13.354;2023-05-16T08:17:36;2.30;;;2.20;;
17925;SDS011;9088;55.674;13.354;2023-05-16T08:20:03;2.63;;;2.53;;
17925;SDS011;9088;55.674;13.354;2023-05-16T08:22:30;2.70;;;2.60;;
17925;SDS011;9088;55.674;13.354;2023-05-16T08:24:57;2.70;;;2.60;;
17925;SDS011;9088;55.674;13.354;2023-05-16T08:27:26;2.60;;;2.50;;
17925;SDS011;9088;55.674;13.354;2023-05-16T08:29:53;2.50;;;2.40;;
17925;SDS011;9088;55.674;13.354;2023-05-16T08:32:21;2.60;;;2.50;;
17925;SDS011;9088;55.674;13.354;2023-05-16T08:34:48;2.60;;;2.50;;
17925;SDS011;9088;55.674;13.354;2023-05-16T08:37:15;2.53;;;2.43;;
17925;SDS011;9088;55.674;13.354;2023-05-16T08:39:42;2.10;;;2.00;;
17925;SDS011;9088;55.674;13.354;2023-05-16T08:42:10;2.10;;;2.00;;
17925;SDS011;9088;55.674;13.354;2023-05-16T08:44:39;2.20;;;2.10;;
17925;SDS011;9088;55.674;13.354;2023-05-16T08:47:08;2.37;;;2.27;;
17925;SDS011;9088;55.674;13.354;2023-05-16T08:49:38;1.70;;;1.70;;
17925;SDS011;9088;55.674;13.354;2023-05-16T08:52:05;2.10;;;2.00;;
17925;SDS011;9088;55.674;13.354;2023-05-16T08:54:33;1.80;;;1.80;;
17925;SDS011;9088;55.674;13.354;2023-05-16T08:57:02;2.30;;;2.20;;
17925;SDS011;9088;55.674;13.354;2023-05-16T08:59:29;1.90;;;1.90;;
17925;SDS011;9088;55.674;13.354;2023-05-16T09:01:58;2.03;;;1.93;;
17925;SDS011;9088;55.674;13.354;2023-05-16T09:04:28;2.10;;;2.00;;
17925;SDS011;9088;55.674;13.354;2023-05-16T09:06:56;2.10;;;2.00;;
17925;SDS011;9088;55.674;13.354;2023-05-16T09:09:23;2.20;;;2.10;;
17925;SDS011;9088;55.674;13.354;2023-05-16T09:11:50;2.07;;;1.97;;
17925;SDS011;9088;55.674;13.354;2023-05-16T09:14:17;1.80;;;1.80;;
17925;SDS011;9088;55.674;13.354;2023-05-16T09:16:44;2.23;;;2.13;;
17925;SDS011;9088;55.674;13.354;2023-05-16T09:19:32;1.70;;;1.70;;
17925;SDS011;9088;55.674;13.354;2023-05-16T09:22:04;1.70;;;1.70;;
17925;SDS011;9088;55.674;13.354;2023-05-16T09:24:31;1.60;;;1.60;;
17925;SDS011;9088;55.674;13.354;2023-05-16T09:27:06;1.30;;;1.30;;
17925;SDS011;9088;55.674;13.354;2023-05-16T09:29:33;1.40;;;1.40;;
17925;SDS011;9088;55.674;13.354;2023-05-16T09:32:03;1.40;;;1.40;;
17925;SDS011;9088;55.674;13.354;2023-05-16T09:34:32;1.50;;;1.50;;
17925;SDS011;9088;55.674;13.354;2023-05-16T09:37:03;1.40;;;1.40;;
17925;SDS011;9088;55.674;13.354;2023-05-16T09:39:30;1.30;;;1.30;;
17925;SDS011;9088;55.674;13.354;2023-05-16T09:41:57;1.40;;;1.40;;
17925;SDS011;9088;55.674;13.354;2023-05-16T09:44:24;1.40;;;1.40;;
17925;SDS011;9088;55.674;13.354;2023-05-16T09:46:52;1.50;;;1.50;;
17925;SDS011;9088;55.674;13.354;2023-05-16T09:49:20;1.40;;;1.40;;
17925;SDS011;9088;55.674;13.354;2023-05-16T09:51:49;1.40;;;1.40;;
17925;SDS011;9088;55.674;13.354;2023-05-16T09:54:27;1.50;;;1.50;;
17925;SDS011;9088;55.674;13.354;2023-05-16T09:56:55;1.53;;;1.53;;
17925;SDS011;9088;55.674;13.354;2023-05-16T09:59:22;1.30;;;1.30;;
17925;SDS011;9088;55.674;13.354;2023-05-16T10:01:49;1.50;;;1.50;;
17925;SDS011;9088;55.674;13.354;2023-05-16T10:04:16;1.80;;;1.80;;
17925;SDS011;9088;55.674;13.354;2023-05-16T10:06:43;1.50;;;1.50;;
17925;SDS011;9088;55.674;13.354;2023-05-16T10:09:13;1.50;;;1.50;;
17925;SDS011;9088;55.674;13.354;2023-05-16T10:11:41;1.63;;;1.63;;
17925;SDS011;9088;55.674;13.354;2023-05-16T10:14:10;1.70;;;1.70;;
17925;SDS011;9088;55.674;13.354;2023-05-16T10:16:37;1.70;;;1.70;;
17925;SDS011;9088;55.674;13.354;2023-05-16T10:19:08;1.70;;;1.70;;
17925;SDS011;9088;55.674;13.354;2023-05-16T10:21:37;1.60;;;1.60;;
17925;SDS011;9088;55.674;13.354;2023-05-16T10:24:05;1.40;;;1.40;;
17925;SDS011;9088;55.674;13.354;2023-05-16T10:26:34;1.40;;;1.40;;
17925;SDS011;9088;55.674;13.354;2023-05-16T10:29:01;1.23;;;1.23;;
17925;SDS011;9088;55.674;13.354;2023-05-16T10:31:28;1.20;;;1.20;;
17925;SDS011;9088;55.674;13.354;2023-05-16T10:33:56;1.20;;;1.20;;
17925;SDS011;9088;55.674;13.354;2023-05-16T10:36:23;1.00;;;1.00;;
17925;SDS011;9088;55.674;13.354;2023-05-16T10:38:50;1.00;;;1.00;;
17925;SDS011;9088;55.674;13.354;2023-05-16T10:41:18;1.07;;;1.07;;
17925;SDS011;9088;55.674;13.354;2023-05-16T10:43:56;1.00;;;1.00;;
17925;SDS011;9088;55.674;13.354;2023-05-16T10:46:23;1.00;;;1.00;;
17925;SDS011;9088;55.674;13.354;2023-05-16T10:48:50;1.00;;;1.00;;
17925;SDS011;9088;55.674;13.354;2023-05-16T10:54:07;1.00;;;1.00;;
17925;SDS011;9088;55.674;13.354;2023-05-16T10:56:34;0.90;;;0.90;;
17925;SDS011;9088;55.674;13.354;2023-05-16T10:59:02;1.00;;;1.00;;
17925;SDS011;9088;55.674;13.354;2023-05-16T11:01:31;0.90;;;0.90;;
17925;SDS011;9088;55.674;13.354;2023-05-16T11:03:59;1.00;;;1.00;;
17925;SDS011;9088;55.674;13.354;2023-05-16T11:06:27;1.00;;;1.00;;
17925;SDS011;9088;55.674;13.354;2023-05-16T11:09:03;0.90;;;0.90;;
17925;SDS011;9088;55.674;13.354;2023-05-16T11:11:40;0.90;;;0.90;;
17925;SDS011;9088;55.674;13.354;2023-05-16T11:14:09;0.87;;;0.87;;
17925;SDS011;9088;55.674;13.354;2023-05-16T11:16:47;0.83;;;0.83;;
17925;SDS011;9088;55.674;13.354;2023-05-16T11:19:17;0.80;;;0.80;;
17925;SDS011;9088;55.674;13.354;2023-05-16T11:22:04;0.90;;;0.90;;
17925;SDS011;9088;55.674;13.354;2023-05-16T11:24:31;0.90;;;0.90;;
17925;SDS011;9088;55.674;13.354;2023-05-16T11:26:59;0.90;;;0.90;;
17925;SDS011;9088;55.674;13.354;2023-05-16T11:29:29;0.83;;;0.83;;
17925;SDS011;9088;55.674;13.354;2023-05-16T11:31:57;0.80;;;0.80;;
17925;SDS011;9088;55.674;13.354;2023-05-16T11:34:25;0.90;;;0.90;;
17925;SDS011;9088;55.674;13.354;2023-05-16T11:36:52;0.90;;;0.90;;
17925;SDS011;9088;55.674;13.354;2023-05-16T11:39:20;0.90;;;0.90;;
17925;SDS011;9088;55.674;13.354;2023-05-16T11:41:48;0.90;;;0.90;;
17925;SDS011;9088;55.674;13.354;2023-05-16T11:44:16;0.93;;;0.93;;
17925;SDS011;9088;55.674;13.354;2023-05-16T11:46:45;0.90;;;0.90;;
17925;SDS011;9088;55.674;13.354;2023-05-16T11:49:12;1.00;;;1.00;;
17925;SDS011;9088;55.674;13.354;2023-05-16T11:51:39;0.93;;;0.93;;
17925;SDS011;9088;55.674;13.354;2023-05-16T11:54:07;1.10;;;1.10;;
17925;SDS011;9088;55.674;13.354;2023-05-16T11:56:35;1.00;;;1.00;;
17925;SDS011;9088;55.674;13.354;2023-05-16T11:59:04;0.90;;;0.90;;
17925;SDS011;9088;55.674;13.354;2023-05-16T12:01:32;0.90;;;0.90;;
17925;SDS011;9088;55.674;13.354;2023-05-16T12:04:02;1.00;;;1.00;;
17925;SDS011;9088;55.674;13.354;2023-05-16T12:06:33;0.90;;;0.90;;
17925;SDS011;9088;55.674;13.354;2023-05-16T12:09:02;1.00;;;1.00;;
17925;SDS011;9088;55.674;13.354;2023-05-16T12:11:35;0.90;;;0.90;;
17925;SDS011;9088;55.674;13.354;2023-05-16T12:14:02;0.80;;;0.80;;
17925;SDS011;9088;55.674;13.354;2023-05-16T12:16:29;0.90;;;0.90;;
17925;SDS011;9088;55.674;13.354;2023-05-16T12:18:57;0.90;;;0.90;;
17925;SDS011;9088;55.674;13.354;2023-05-16T12:21:27;0.90;;;0.90;;
17925;SDS011;9088;55.674;13.354;2023-05-16T12:23:54;0.90;;;0.90;;
17925;SDS011;9088;55.674;13.354;2023-05-16T12:26:23;0.80;;;0.80;;
17925;SDS011;9088;55.674;13.354;2023-05-16T12:28:52;0.80;;;0.80;;
17925;SDS011;9088;55.674;13.354;2023-05-16T12:31:21;0.90;;;0.90;;
17925;SDS011;9088;55.674;13.354;2023-05-16T12:33:51;0.90;;;0.90;;
17925;SDS011;9088;55.674;13.354;2023-05-16T12:36:19;0.90;;;0.90;;
17925;SDS011;9088;55.674;13.354;2023-05-16T12:38:47;0.90;;;0.90;;
17925;SDS011;9088;55.674;13.354;2023-05-16T12:41:16;0.90;;;0.90;;
17925;SDS011;9088;55.674;13.354;2023-05-16T12:43:44;0.90;;;0.90;;
17925;SDS011;9088;55.674;13.354;2023-05-16T12:46:11;0.80;;;0.80;;
17925;SDS011;9088;55.674;13.354;2023-05-16T12:48:38;1.00;;;1.00;;
17925;SDS011;9088;55.674;13.354;2023-05-16T12:51:10;0.90;;;0.90;;
17925;SDS011;9088;55.674;13.354;2023-05-16T12:53:42;0.90;;;0.90;;
17925;SDS011;9088;55.674;13.354;2023-05-16T12:56:11;0.87;;;0.87;;
17925;SDS011;9088;55.674;13.354;2023-05-16T12:58:39;0.90;;;0.90;;
17925;SDS011;9088;55.674;13.354;2023-05-16T13:01:07;1.10;;;1.10;;
17925;SDS011;9088;55.674;13.354;2023-05-16T13:03:36;0.93;;;0.93;;
17925;SDS011;9088;55.674;13.354;2023-05-16T13:06:03;1.00;;;1.00;;
17925;SDS011;9088;55.674;13.354;2023-05-16T13:08:31;1.00;;;1.00;;
17925;SDS011;9088;55.674;13.354;2023-05-16T13:10:59;0.90;;;0.90;;
17925;SDS011;9088;55.674;13.354;2023-05-16T13:13:27;0.90;;;0.90;;
17925;SDS011;9088;55.674;13.354;2023-05-16T13:15:54;0.90;;;0.90;;
17925;SDS011;9088;55.674;13.354;2023-05-16T13:18:21;0.90;;;0.90;;
17925;SDS011;9088;55.674;13.354;2023-05-16T13:20:48;0.90;;;0.90;;
17925;SDS011;9088;55.674;13.354;2023-05-16T13:23:16;0.93;;;0.93;;
17925;SDS011;9088;55.674;13.354;2023-05-16T13:25:44;0.90;;;0.90;;
17925;SDS011;9088;55.674;13.354;2023-05-16T13:28:11;1.00;;;1.00;;
17925;SDS011;9088;55.674;13.354;2023-05-16T13:30:39;1.00;;;1.00;;
17925;SDS011;9088;55.674;13.354;2023-05-16T13:33:06;1.10;;;1.10;;
17925;SDS011;9088;55.674;13.354;2023-05-16T13:35:34;1.10;;;1.10;;
17925;SDS011;9088;55.674;13.354;2023-05-16T13:38:01;0.90;;;0.90;;
17925;SDS011;9088;55.674;13.354;2023-05-16T13:40:28;1.00;;;1.00;;
17925;SDS011;9088;55.674;13.354;2023-05-16T13:42:56;0.90;;;0.90;;
17925;SDS011;9088;55.674;13.354;2023-05-16T13:45:25;1.00;;;1.00;;
17925;SDS011;9088;55.674;13.354;2023-05-16T13:47:53;1.10;;;1.10;;
17925;SDS011;9088;55.674;13.354;2023-05-16T13:50:21;1.10;;;1.10;;
17925;SDS011;9088;55.674;13.354;2023-05-16T13:52:48;1.00;;;1.00;;
17925;SDS011;9088;55.674;13.354;2023-05-16T13:55:16;1.00;;;1.00;;
17925;SDS011;9088;55.674;13.354;2023-05-16T13:57:43;0.90;;;0.90;;
17925;SDS011;9088;55.674;13.354;2023-05-16T14:00:11;1.00;;;1.00;;
17925;SDS011;9088;55.674;13.354;2023-05-16T14:02:38;1.10;;;1.10;;
17925;SDS011;9088;55.674;13.354;2023-05-16T14:05:07;1.00;;;1.00;;
17925;SDS011;9088;55.674;13.354;2023-05-16T14:07:34;1.00;;;1.00;;
17925;SDS011;9088;55.674;13.354;2023-05-16T14:10:02;1.10;;;1.10;;
17925;SDS011;9088;55.674;13.354;2023-05-16T14:12:30;1.00;;;1.00;;
17925;SDS011;9088;55.674;13.354;2023-05-16T14:14:57;0.90;;;0.90;;
17925;SDS011;9088;55.674;13.354;2023-05-16T14:17:24;0.97;;;0.97;;
17925;SDS011;9088;55.674;13.354;2023-05-16T14:19:52;1.00;;;1.00;;
17925;SDS011;9088;55.674;13.354;2023-05-16T14:22:22;1.00;;;1.00;;
17925;SDS011;9088;55.674;13.354;2023-05-16T14:24:50;1.03;;;1.03;;
17925;SDS011;9088;55.674;13.354;2023-05-16T14:27:17;1.00;;;1.00;;
17925;SDS011;9088;55.674;13.354;2023-05-16T14:29:44;1.10;;;1.10;;
17925;SDS011;9088;55.674;13.354;2023-05-16T14:32:12;1.10;;;1.10;;
17925;SDS011;9088;55.674;13.354;2023-05-16T14:34:40;1.10;;;1.10;;
17925;SDS011;9088;55.674;13.354;2023-05-16T14:37:07;1.10;;;1.10;;
17925;SDS011;9088;55.674;13.354;2023-05-16T14:39:35;1.20;;;1.20;;
17925;SDS011;9088;55.674;13.354;2023-05-16T14:42:04;1.10;;;1.10;;
17925;SDS011;9088;55.674;13.354;2023-05-16T14:44:32;1.10;;;1.10;;
17925;SDS011;9088;55.674;13.354;2023-05-16T14:46:59;1.13;;;1.13;;
17925;SDS011;9088;55.674;13.354;2023-05-16T14:49:26;1.10;;;1.10;;
17925;SDS011;9088;55.674;13.354;2023-05-16T14:51:53;1.10;;;1.10;;
17925;SDS011;9088;55.674;13.354;2023-05-16T14:54:20;1.00;;;1.00;;
17925;SDS011;9088;55.674;13.354;2023-05-16T14:56:49;1.00;;;1.00;;
17925;SDS011;9088;55.674;13.354;2023-05-16T14:59:16;1.10;;;1.10;;
17925;SDS011;9088;55.674;13.354;2023-05-16T15:01:43;1.00;;;1.00;;
17925;SDS011;9088;55.674;13.354;2023-05-16T15:04:10;1.00;;;1.00;;
17925;SDS011;9088;55.674;13.354;2023-05-16T15:06:39;1.10;;;1.10;;
17925;SDS011;9088;55.674;13.354;2023-05-16T15:09:06;1.20;;;1.20;;
17925;SDS011;9088;55.674;13.354;2023-05-16T15:11:33;1.10;;;1.10;;
17925;SDS011;9088;55.674;13.354;2023-05-16T15:14:02;1.30;;;1.30;;